createdAt,value
2023-04-08T00:00:10.773Z,6.75
2023-04-08T00:02:37.615Z,6.13
2023-04-08T00:05:04.973Z,7.57
2023-04-08T00:07:31.826Z,8.02
2023-04-08T00:09:58.387Z,7.65
2023-04-08T00:12:25.020Z,8.35
2023-04-08T00:14:52.989Z,7.97
2023-04-08T00:17:19.589Z,8.57
2023-04-08T00:19:46.250Z,8.20
2023-04-08T00:22:12.972Z,8.20
2023-04-08T00:24:40.867Z,9.82
2023-04-08T00:27:07.552Z,8.10
2023-04-08T00:29:34.392Z,7.18
2023-04-08T00:32:00.966Z,7.07
2023-04-08T00:34:27.536Z,7.47
2023-04-08T00:36:54.116Z,7.95
2023-04-08T00:39:21.074Z,7.35
2023-04-08T00:41:47.685Z,8.27
2023-04-08T00:44:14.381Z,7.30
2023-04-08T00:46:41.378Z,8.20
2023-04-08T00:49:08.321Z,7.15
2023-04-08T00:51:37.699Z,7.45
2023-04-08T00:54:05.324Z,6.60
2023-04-08T00:56:33.024Z,7.22
2023-04-08T00:59:01.107Z,8.32
2023-04-08T01:01:46.199Z,6.97
2023-04-08T01:04:30.219Z,9.27
2023-04-08T01:07:08.504Z,8.60
2023-04-08T01:09:39.641Z,8.23
2023-04-08T01:12:09.425Z,7.97
2023-04-08T01:14:41.312Z,8.18
2023-04-08T01:17:09.697Z,7.93
2023-04-08T01:19:40.476Z,7.90
2023-04-08T01:22:19.592Z,8.00
2023-04-08T01:24:50.392Z,9.13
2023-04-08T01:27:19.121Z,9.15
2023-04-08T01:29:48.763Z,8.15
2023-04-08T01:32:17.063Z,7.32
2023-04-08T01:34:45.378Z,7.65
2023-04-08T01:37:13.612Z,8.07
2023-04-08T01:39:42.241Z,7.10
2023-04-08T01:42:10.679Z,8.30
2023-04-08T01:44:40.296Z,7.70
2023-04-08T01:47:08.040Z,7.43
2023-04-08T01:49:35.666Z,6.88
2023-04-08T01:52:03.659Z,7.10
2023-04-08T01:54:30.456Z,8.50
2023-04-08T01:56:58.900Z,8.25
2023-04-08T01:59:29.946Z,8.10
2023-04-08T02:01:57.400Z,8.30
2023-04-08T02:04:24.212Z,7.60
2023-04-08T02:06:51.108Z,8.25
2023-04-08T02:09:17.817Z,7.57
2023-04-08T02:11:44.374Z,7.00
2023-04-08T02:14:11.061Z,7.72
2023-04-08T02:16:50.130Z,6.68
2023-04-08T02:19:24.591Z,6.97
2023-04-08T02:21:57.780Z,6.95
2023-04-08T02:24:26.403Z,6.68
2023-04-08T02:26:55.852Z,6.93
2023-04-08T02:29:23.987Z,7.18
2023-04-08T02:31:51.807Z,6.80
2023-04-08T02:34:21.749Z,6.90
2023-04-08T02:36:48.656Z,6.97
2023-04-08T02:39:15.405Z,6.60
2023-04-08T02:41:42.018Z,7.78
2023-04-08T02:44:10.054Z,7.80
2023-04-08T02:46:36.787Z,6.57
2023-04-08T02:49:04.051Z,7.15
2023-04-08T02:51:30.702Z,9.35
2023-04-08T02:53:57.434Z,8.30
2023-04-08T02:56:24.125Z,7.82
2023-04-08T02:58:52.392Z,8.45
2023-04-08T03:01:19.120Z,8.32
2023-04-08T03:03:46.051Z,8.93
2023-04-08T03:06:12.869Z,7.85
2023-04-08T03:08:39.581Z,8.05
2023-04-08T03:11:06.206Z,7.35
2023-04-08T03:13:32.938Z,7.82
2023-04-08T03:15:59.644Z,7.70
2023-04-08T03:18:26.410Z,8.13
2023-04-08T03:20:53.018Z,7.25
2023-04-08T03:23:19.873Z,7.60
2023-04-08T03:25:46.984Z,6.88
2023-04-08T03:28:13.547Z,7.75
2023-04-08T03:30:40.323Z,7.30
2023-04-08T03:33:08.280Z,7.47
2023-04-08T03:35:35.201Z,7.97
2023-04-08T03:38:01.951Z,7.53
2023-04-08T03:40:28.607Z,6.68
2023-04-08T03:42:55.249Z,7.68
2023-04-08T03:45:22.140Z,7.75
2023-04-08T03:47:48.782Z,7.65
2023-04-08T03:50:15.618Z,8.20
2023-04-08T03:52:42.374Z,6.80
2023-04-08T03:55:09.459Z,6.32
2023-04-08T03:57:36.110Z,7.72
2023-04-08T04:00:02.787Z,7.63
2023-04-08T04:02:29.742Z,6.75
2023-04-08T04:04:56.664Z,7.40
2023-04-08T04:07:23.385Z,7.78
2023-04-08T04:09:54.103Z,7.65
2023-04-08T04:12:21.614Z,8.65
2023-04-08T04:14:48.191Z,6.80
2023-04-08T04:17:14.888Z,7.72
2023-04-08T04:19:41.574Z,7.65
2023-04-08T04:22:08.213Z,8.85
2023-04-08T04:24:34.887Z,9.18
2023-04-08T04:27:01.506Z,8.25
2023-04-08T04:29:28.103Z,8.60
2023-04-08T04:31:54.679Z,7.13
2023-04-08T04:34:21.303Z,8.60
2023-04-08T04:36:48.084Z,9.00
2023-04-08T04:39:14.689Z,9.52
2023-04-08T04:41:41.360Z,9.27
2023-04-08T04:44:07.990Z,9.35
2023-04-08T04:46:34.721Z,9.73
2023-04-08T04:49:01.388Z,9.38
2023-04-08T04:51:27.985Z,8.80
2023-04-08T04:53:54.713Z,8.75
2023-04-08T04:56:21.815Z,9.25
2023-04-08T04:58:48.596Z,8.00
2023-04-08T05:01:15.780Z,9.38
2023-04-08T05:03:42.446Z,7.80
2023-04-08T05:06:09.196Z,8.30
2023-04-08T05:08:35.895Z,9.77
2023-04-08T05:11:02.527Z,8.63
2023-04-08T05:13:29.625Z,8.48
2023-04-08T05:15:56.206Z,8.82
2023-04-08T05:18:22.867Z,9.38
2023-04-08T05:20:49.531Z,7.85
2023-04-08T05:23:16.243Z,8.98
2023-04-08T05:25:42.947Z,9.05
2023-04-08T05:28:09.715Z,8.82
2023-04-08T05:30:36.415Z,7.57
2023-04-08T05:33:04.118Z,8.45
2023-04-08T05:35:30.978Z,8.98
2023-04-08T05:37:57.693Z,8.90
2023-04-08T05:40:24.385Z,8.75
2023-04-08T05:42:51.056Z,7.85
2023-04-08T05:45:17.881Z,9.30
2023-04-08T05:47:44.604Z,8.75
2023-04-08T05:50:11.561Z,7.85
2023-04-08T05:52:41.940Z,8.70
2023-04-08T05:55:08.978Z,8.82
2023-04-08T05:57:35.660Z,8.70
2023-04-08T06:00:02.463Z,9.85
2023-04-08T06:02:29.176Z,8.30
2023-04-08T06:04:55.987Z,9.57
2023-04-08T06:07:22.633Z,9.20
2023-04-08T06:09:49.314Z,8.82
2023-04-08T06:12:15.958Z,8.93
2023-04-08T06:14:42.708Z,9.52
2023-04-08T06:17:09.389Z,8.95
2023-04-08T06:19:36.109Z,8.48
2023-04-08T06:22:02.815Z,9.25
2023-04-08T06:24:29.574Z,13.25
2023-04-08T06:26:56.770Z,9.38
2023-04-08T06:29:23.968Z,8.10
2023-04-08T06:31:51.274Z,7.63
2023-04-08T06:34:18.008Z,8.50
2023-04-08T06:36:44.575Z,8.88
2023-04-08T06:39:11.441Z,8.18
2023-04-08T06:41:38.132Z,7.97
2023-04-08T06:44:04.846Z,8.77
2023-04-08T06:46:31.454Z,7.22
2023-04-08T06:48:58.174Z,9.63
2023-04-08T06:51:24.895Z,7.43
2023-04-08T06:53:51.507Z,8.00
2023-04-08T06:56:18.253Z,8.98
2023-04-08T06:58:44.988Z,7.25
2023-04-08T07:01:11.800Z,7.93
2023-04-08T07:03:38.514Z,9.05
2023-04-08T07:06:05.269Z,8.43
2023-04-08T07:08:31.842Z,8.65
2023-04-08T07:10:58.556Z,8.95
2023-04-08T07:13:25.218Z,9.30
2023-04-08T07:15:52.259Z,8.65
2023-04-08T07:18:18.919Z,7.97
2023-04-08T07:20:45.525Z,7.30
2023-04-08T07:23:12.073Z,6.78
2023-04-08T07:25:38.668Z,5.78
2023-04-08T07:28:05.365Z,7.13
2023-04-08T07:30:32.293Z,4.55
2023-04-08T07:33:00.917Z,6.15
2023-04-08T07:35:28.036Z,6.85
2023-04-08T07:37:55.675Z,6.10
2023-04-08T07:40:22.527Z,5.05
2023-04-08T07:42:49.382Z,6.38
2023-04-08T07:45:16.156Z,5.28
2023-04-08T07:47:42.821Z,6.05
2023-04-08T07:50:09.859Z,5.70
2023-04-08T07:52:36.429Z,5.00
2023-04-08T07:55:03.184Z,6.30
2023-04-08T07:57:29.953Z,6.25
2023-04-08T07:59:56.643Z,6.78
2023-04-08T08:02:23.814Z,6.18
2023-04-08T08:04:50.697Z,5.82
2023-04-08T08:07:17.557Z,5.47
2023-04-08T08:09:44.281Z,7.93
2023-04-08T08:12:11.720Z,6.90
2023-04-08T08:14:38.800Z,5.40
2023-04-08T08:17:05.524Z,6.57
2023-04-08T08:19:32.227Z,5.65
2023-04-08T08:21:58.867Z,5.50
2023-04-08T08:24:26.076Z,4.93
2023-04-08T08:26:52.756Z,5.90
2023-04-08T08:29:19.349Z,5.68
2023-04-08T08:31:46.278Z,5.55
2023-04-08T08:34:13.097Z,6.10
2023-04-08T08:36:39.879Z,5.35
2023-04-08T08:39:06.588Z,6.15
2023-04-08T08:41:36.104Z,5.93
2023-04-08T08:44:05.515Z,5.55
2023-04-08T08:46:32.454Z,5.00
2023-04-08T08:48:59.226Z,5.35
2023-04-08T08:51:28.013Z,5.55
2023-04-08T08:53:54.799Z,4.90
2023-04-08T08:56:22.116Z,5.75
2023-04-08T08:58:49.252Z,5.10
2023-04-08T09:01:34.341Z,5.80
2023-04-08T09:04:16.635Z,5.60
2023-04-08T09:06:48.862Z,5.85
2023-04-08T09:09:16.017Z,5.47
2023-04-08T09:11:45.050Z,5.53
2023-04-08T09:14:23.046Z,4.90
2023-04-08T09:16:51.169Z,5.60
2023-04-08T09:19:18.543Z,4.35
2023-04-08T09:21:45.451Z,5.32
2023-04-08T09:24:29.061Z,5.50
2023-04-08T09:26:56.616Z,6.03
2023-04-08T09:29:30.066Z,7.07
2023-04-08T09:32:00.313Z,5.07
2023-04-08T09:34:38.007Z,6.63
2023-04-08T09:37:04.697Z,6.75
2023-04-08T09:39:31.672Z,5.70
2023-04-08T09:42:01.555Z,5.97
2023-04-08T09:44:30.607Z,5.28
2023-04-08T09:47:08.565Z,5.13
2023-04-08T09:49:41.013Z,5.45
2023-04-08T09:52:11.303Z,5.63
2023-04-08T09:54:41.142Z,4.95
2023-04-08T09:57:16.437Z,5.95
2023-04-08T09:59:51.367Z,5.72
2023-04-08T10:02:29.519Z,4.95
2023-04-08T10:05:01.242Z,4.78
2023-04-08T10:07:28.203Z,5.13
2023-04-08T10:09:55.135Z,5.45
2023-04-08T10:12:22.024Z,5.03
2023-04-08T10:15:26.493Z,4.15
2023-04-08T10:18:20.391Z,4.38
2023-04-08T10:20:49.340Z,5.68
2023-04-08T10:23:19.244Z,4.97
2023-04-08T10:25:50.223Z,4.35
2023-04-08T10:28:18.307Z,5.38
2023-04-08T10:30:46.743Z,4.50
2023-04-08T10:33:22.014Z,4.53
2023-04-08T10:36:10.386Z,4.43
2023-04-08T10:38:40.197Z,5.35
2023-04-08T10:41:06.936Z,5.65
2023-04-08T10:43:34.668Z,5.03
2023-04-08T10:46:02.253Z,5.45
2023-04-08T10:48:29.442Z,4.03
2023-04-08T10:51:04.099Z,4.65
2023-04-08T10:53:33.786Z,4.72
2023-04-08T10:56:19.666Z,4.30
2023-04-08T10:58:56.303Z,4.22
2023-04-08T11:01:23.702Z,5.35
2023-04-08T11:03:50.861Z,4.80
2023-04-08T11:06:19.593Z,4.60
2023-04-08T11:08:46.451Z,4.57
2023-04-08T11:11:13.297Z,4.18
2023-04-08T11:13:51.051Z,5.28
2023-04-08T11:16:20.881Z,4.85
2023-04-08T11:18:48.326Z,5.13
2023-04-08T11:21:16.839Z,4.75
2023-04-08T11:23:43.808Z,4.28
2023-04-08T11:26:11.449Z,3.90
2023-04-08T11:28:38.850Z,4.20
2023-04-08T11:31:06.375Z,4.93
2023-04-08T11:33:35.191Z,4.30
2023-04-08T11:36:04.784Z,4.00
2023-04-08T11:38:32.894Z,4.18
2023-04-08T11:41:00.630Z,4.65
2023-04-08T11:43:27.669Z,4.93
2023-04-08T11:45:54.547Z,5.13
2023-04-08T11:48:21.499Z,4.25
2023-04-08T11:50:48.684Z,4.93
2023-04-08T11:53:22.686Z,4.20
2023-04-08T11:55:49.636Z,4.07
2023-04-08T11:58:16.551Z,5.28
2023-04-08T12:00:43.930Z,3.38
2023-04-08T12:03:11.667Z,3.63
2023-04-08T12:05:39.057Z,3.72
2023-04-08T12:08:06.020Z,4.32
2023-04-08T12:10:33.060Z,3.10
2023-04-08T12:12:59.713Z,3.90
2023-04-08T12:15:26.745Z,4.18
2023-04-08T12:17:53.614Z,5.22
2023-04-08T12:20:21.064Z,4.68
2023-04-08T12:22:48.045Z,3.58
2023-04-08T12:25:14.908Z,3.90
2023-04-08T12:27:42.300Z,3.92
2023-04-08T12:30:09.898Z,3.50
2023-04-08T12:32:36.650Z,3.83
2023-04-08T12:35:03.531Z,3.83
2023-04-08T12:37:30.472Z,3.70
2023-04-08T12:39:57.431Z,4.55
2023-04-08T12:42:24.381Z,3.78
2023-04-08T12:44:51.121Z,4.43
2023-04-08T12:47:18.538Z,3.50
2023-04-08T12:49:49.698Z,3.65
2023-04-08T12:52:17.685Z,4.27
2023-04-08T12:54:44.825Z,3.53
2023-04-08T12:57:12.015Z,3.28
2023-04-08T12:59:40.179Z,3.17
2023-04-08T13:02:08.109Z,2.95
2023-04-08T13:04:35.447Z,3.50
2023-04-08T13:07:02.566Z,3.55
2023-04-08T13:09:30.792Z,3.45
2023-04-08T13:11:58.456Z,4.05
2023-04-08T13:14:25.837Z,3.60
2023-04-08T13:16:52.818Z,3.90
2023-04-08T13:19:19.808Z,3.72
2023-04-08T13:21:46.660Z,4.20
2023-04-08T13:24:13.437Z,3.15
2023-04-08T13:26:40.667Z,3.53
2023-04-08T13:29:07.509Z,3.03
2023-04-08T13:31:34.595Z,2.85
2023-04-08T13:34:01.556Z,2.63
2023-04-08T13:36:29.159Z,2.85
2023-04-08T13:38:56.669Z,2.90
2023-04-08T13:41:23.712Z,2.70
2023-04-08T13:43:50.596Z,3.05
2023-04-08T13:46:18.262Z,2.90
2023-04-08T13:48:46.556Z,2.97
2023-04-08T13:51:13.758Z,2.47
2023-04-08T13:53:41.003Z,2.78
2023-04-08T13:56:08.198Z,2.75
2023-04-08T13:58:35.595Z,3.47
2023-04-08T14:01:02.859Z,2.78
2023-04-08T14:03:29.694Z,3.70
2023-04-08T14:05:58.136Z,2.42
2023-04-08T14:08:26.060Z,2.67
2023-04-08T14:10:53.856Z,3.17
2023-04-08T14:13:21.010Z,2.65
2023-04-08T14:15:48.261Z,3.20
2023-04-08T14:18:17.683Z,3.72
2023-04-08T14:20:44.605Z,3.10
2023-04-08T14:23:13.505Z,4.03
2023-04-08T14:25:41.054Z,3.63
2023-04-08T14:28:08.098Z,2.58
2023-04-08T14:30:36.545Z,2.92
2023-04-08T14:33:05.356Z,2.70
2023-04-08T14:35:32.196Z,3.65
2023-04-08T14:37:59.439Z,3.33
2023-04-08T14:40:26.291Z,2.85
2023-04-08T14:42:53.219Z,2.95
2023-04-08T14:45:20.117Z,3.08
2023-04-08T14:47:47.197Z,3.15
2023-04-08T14:50:14.083Z,3.53
2023-04-08T14:52:41.067Z,2.97
2023-04-08T14:55:08.065Z,2.60
2023-04-08T14:57:34.687Z,3.60
2023-04-08T15:00:01.940Z,3.33
2023-04-08T15:02:28.793Z,3.50
2023-04-08T15:04:55.654Z,4.32
2023-04-08T15:07:22.758Z,4.00
2023-04-08T15:09:49.452Z,4.60
2023-04-08T15:12:16.248Z,3.85
2023-04-08T15:14:43.090Z,4.45
2023-04-08T15:17:10.378Z,3.35
2023-04-08T15:19:37.197Z,3.95
2023-04-08T15:22:04.031Z,4.82
2023-04-08T15:24:30.843Z,3.80
2023-04-08T15:26:57.673Z,4.20
2023-04-08T15:29:24.806Z,5.38
2023-04-08T15:31:52.604Z,4.40
2023-04-08T15:34:19.472Z,4.10
2023-04-08T15:36:47.462Z,3.67
2023-04-08T15:39:14.256Z,4.78
2023-04-08T15:41:41.798Z,4.68
2023-04-08T15:44:08.581Z,3.70
2023-04-08T15:46:37.435Z,3.45
2023-04-08T15:49:05.111Z,3.50
2023-04-08T15:51:32.485Z,3.08
2023-04-08T15:53:59.931Z,3.30
2023-04-08T15:56:28.360Z,3.80
2023-04-08T15:58:56.860Z,3.35
2023-04-08T16:01:23.627Z,3.78
2023-04-08T16:03:50.741Z,3.10
2023-04-08T16:06:17.801Z,3.20
2023-04-08T16:08:47.044Z,2.60
2023-04-08T16:11:13.810Z,3.78
2023-04-08T16:13:42.416Z,2.63
2023-04-08T16:16:09.639Z,3.25
2023-04-08T16:18:36.460Z,2.70
2023-04-08T16:21:06.614Z,2.70
2023-04-08T16:23:35.663Z,2.72
2023-04-08T16:26:02.551Z,3.42
2023-04-08T16:28:29.488Z,3.25
2023-04-08T16:30:56.136Z,3.63
2023-04-08T16:33:29.860Z,3.55
2023-04-08T16:36:04.299Z,4.00
2023-04-08T16:38:31.080Z,3.42
2023-04-08T16:41:01.220Z,3.33
2023-04-08T16:43:28.103Z,2.97
2023-04-08T16:45:55.061Z,3.53
2023-04-08T16:48:22.482Z,3.30
2023-04-08T16:50:49.289Z,3.30
2023-04-08T16:53:16.007Z,3.65
2023-04-08T16:55:42.780Z,3.22
2023-04-08T16:58:09.595Z,3.80
2023-04-08T17:00:36.452Z,4.20
2023-04-08T17:03:03.470Z,3.08
2023-04-08T17:05:30.235Z,3.60
2023-04-08T17:07:57.199Z,2.60
2023-04-08T17:10:24.397Z,3.15
2023-04-08T17:12:51.623Z,3.47
2023-04-08T17:15:18.379Z,3.17
2023-04-08T17:17:45.463Z,3.75
2023-04-08T17:20:12.481Z,3.35
2023-04-08T17:22:39.418Z,3.92
2023-04-08T17:25:06.708Z,4.10
2023-04-08T17:27:34.043Z,4.82
2023-04-08T17:30:00.817Z,4.57
2023-04-08T17:32:27.760Z,5.20
2023-04-08T17:34:54.765Z,4.13
2023-04-08T17:37:21.753Z,5.22
2023-04-08T17:39:48.452Z,5.22
2023-04-08T17:42:15.107Z,7.80
2023-04-08T17:44:42.215Z,9.15
2023-04-08T17:47:09.185Z,8.57
2023-04-08T17:49:36.198Z,8.43
2023-04-08T17:52:03.134Z,9.00
2023-04-08T17:54:31.523Z,10.52
2023-04-08T17:56:58.532Z,8.05
2023-04-08T17:59:25.762Z,10.07
2023-04-08T18:01:52.788Z,8.25
2023-04-08T18:04:19.670Z,9.68
2023-04-08T18:06:46.815Z,10.75
2023-04-08T18:09:15.970Z,11.13
2023-04-08T18:11:42.790Z,12.10
2023-04-08T18:14:09.524Z,13.75
2023-04-08T18:16:36.293Z,13.85
2023-04-08T18:19:03.388Z,11.95
2023-04-08T18:21:31.750Z,11.55
2023-04-08T18:23:58.449Z,10.65
2023-04-08T18:26:25.570Z,11.30
2023-04-08T18:28:52.299Z,10.00
2023-04-08T18:31:19.224Z,9.77
2023-04-08T18:33:46.113Z,9.70
2023-04-08T18:36:13.946Z,9.93
2023-04-08T18:38:41.320Z,12.80
2023-04-08T18:41:08.464Z,10.90
2023-04-08T18:43:35.318Z,10.27
2023-04-08T18:46:02.357Z,11.48
2023-04-08T18:48:30.041Z,11.80
2023-04-08T18:50:57.896Z,10.52
2023-04-08T18:53:24.670Z,11.38
2023-04-08T18:55:51.861Z,11.48
2023-04-08T18:58:19.014Z,11.23
2023-04-08T19:00:46.208Z,11.38
2023-04-08T19:03:13.278Z,11.10
2023-04-08T19:05:40.254Z,11.13
2023-04-08T19:08:07.100Z,12.57
2023-04-08T19:10:34.593Z,13.00
2023-04-08T19:13:04.091Z,13.38
2023-04-08T19:15:31.234Z,13.43
2023-04-08T19:17:59.320Z,14.00
2023-04-08T19:20:29.065Z,13.45
2023-04-08T19:22:56.057Z,14.88
2023-04-08T19:25:22.972Z,17.65
2023-04-08T19:27:49.992Z,17.23
2023-04-08T19:30:16.916Z,19.58
2023-04-08T19:32:44.755Z,22.60
2023-04-08T19:35:13.111Z,21.02
2023-04-08T19:37:40.558Z,22.75
2023-04-08T19:40:09.057Z,25.63
2023-04-08T19:42:36.563Z,24.38
2023-04-08T19:45:03.854Z,22.88
2023-04-08T19:47:30.603Z,19.48
2023-04-08T19:49:58.470Z,15.73
2023-04-08T19:52:25.586Z,16.42
2023-04-08T19:54:52.588Z,15.77
2023-04-08T19:57:20.711Z,17.25
2023-04-08T19:59:50.234Z,16.98
2023-04-08T20:02:17.269Z,14.95
2023-04-08T20:04:45.735Z,16.88
2023-04-08T20:07:13.360Z,16.80
2023-04-08T20:09:40.120Z,14.80
2023-04-08T20:12:07.139Z,14.50
2023-04-08T20:14:40.636Z,13.93
2023-04-08T20:17:07.699Z,14.23
2023-04-08T20:19:36.967Z,14.50
2023-04-08T20:22:06.216Z,13.43
2023-04-08T20:24:33.149Z,13.38
2023-04-08T20:27:00.393Z,12.93
2023-04-08T20:29:28.716Z,14.32
2023-04-08T20:31:55.680Z,12.55
2023-04-08T20:34:22.625Z,12.77
2023-04-08T20:36:49.408Z,14.50
2023-04-08T20:39:16.500Z,12.90
2023-04-08T20:41:43.351Z,12.85
2023-04-08T20:44:10.842Z,12.77
2023-04-08T20:46:38.400Z,12.68
2023-04-08T20:49:08.164Z,12.73
2023-04-08T20:51:35.360Z,13.57
2023-04-08T20:54:05.557Z,14.60
2023-04-08T20:56:32.591Z,16.40
2023-04-08T20:59:00.450Z,17.23
2023-04-08T21:01:27.454Z,17.83
2023-04-08T21:03:54.906Z,16.92
2023-04-08T21:06:22.314Z,16.55
2023-04-08T21:08:50.210Z,15.35
2023-04-08T21:11:17.401Z,15.90
2023-04-08T21:13:45.024Z,16.73
2023-04-08T21:16:13.524Z,17.33
2023-04-08T21:18:40.691Z,16.80
2023-04-08T21:21:09.766Z,15.32
2023-04-08T21:23:36.504Z,14.90
2023-04-08T21:26:03.776Z,17.17
2023-04-08T21:28:30.945Z,16.60
2023-04-08T21:31:08.183Z,14.48
2023-04-08T21:33:34.967Z,15.32
2023-04-08T21:36:01.805Z,14.23
2023-04-08T21:38:28.758Z,15.55
2023-04-08T21:40:55.749Z,15.45
2023-04-08T21:43:22.597Z,13.48
2023-04-08T21:45:49.447Z,15.48
2023-04-08T21:48:16.285Z,22.63
2023-04-08T21:50:43.098Z,20.52
2023-04-08T21:53:09.747Z,14.70
2023-04-08T21:55:36.499Z,15.77
2023-04-08T21:58:03.356Z,14.23
2023-04-08T22:00:30.250Z,16.67
2023-04-08T22:02:57.238Z,15.55
2023-04-08T22:05:24.071Z,14.85
2023-04-08T22:07:50.835Z,14.35
2023-04-08T22:10:17.588Z,14.00
2023-04-08T22:12:44.398Z,13.90
2023-04-08T22:15:11.443Z,14.27
2023-04-08T22:17:38.389Z,13.10
2023-04-08T22:20:05.722Z,13.30
2023-04-08T22:22:32.689Z,14.30
2023-04-08T22:24:59.429Z,14.43
2023-04-08T22:27:28.560Z,14.23
2023-04-08T22:29:55.330Z,15.32
2023-04-08T22:32:21.929Z,14.13
2023-04-08T22:34:48.739Z,15.43
2023-04-08T22:37:15.574Z,16.02
2023-04-08T22:39:42.217Z,16.98
2023-04-08T22:42:09.088Z,16.85
2023-04-08T22:44:36.117Z,17.98
2023-04-08T22:47:02.952Z,16.25
2023-04-08T22:49:29.718Z,16.00
2023-04-08T22:51:56.417Z,13.95
2023-04-08T22:54:23.259Z,15.55
2023-04-08T22:56:50.026Z,14.02
2023-04-08T22:59:25.555Z,15.63
2023-04-08T23:01:52.335Z,15.55
2023-04-08T23:04:19.092Z,14.00
2023-04-08T23:06:46.027Z,13.27
2023-04-08T23:09:12.955Z,14.63
2023-04-08T23:11:39.716Z,15.35
2023-04-08T23:14:06.530Z,13.93
2023-04-08T23:16:35.385Z,16.02
2023-04-08T23:19:02.243Z,15.95
2023-04-08T23:21:29.047Z,14.38
2023-04-08T23:23:55.885Z,15.73
2023-04-08T23:26:22.525Z,15.98
2023-04-08T23:28:49.900Z,15.68
2023-04-08T23:31:17.368Z,14.93
2023-04-08T23:33:44.156Z,15.20
2023-04-08T23:36:12.045Z,14.63
2023-04-08T23:38:39.002Z,14.05
2023-04-08T23:41:07.016Z,15.02
2023-04-08T23:43:34.517Z,13.57
2023-04-08T23:46:01.338Z,14.73
2023-04-08T23:48:28.208Z,12.82
2023-04-08T23:50:55.570Z,12.70
2023-04-08T23:53:22.637Z,12.57
2023-04-08T23:55:49.470Z,12.60
2023-04-08T23:58:16.451Z,13.32
